Главная страница
METAR-TAF:

METAR-TAF

Аэропорты :

Ивало, Финляндия

широта: 68-37N, долгота: 027-25E, высота над уровнем моря: 147 м

Текущие метеонаблюдения

Эта сводка был подготовлена 32 минут назад, в 06:20 UTC
Ветер 11 Узел от северно-северо-западный, изменяющийся между западно-северо-западный и северный
Температура -3°C
Влажность 86%
Давление 1007 hPa
Видимость 10 км и более
небольшая облачность на высоте 1300 фута
Сплошная облачность на высоте 4800 фута

METAR: EFIV 190620Z 33011KT 300V360 9999 FEW013 OVC048 M03/M05 Q1007

Время: 08:52 (06:52 UTC)

Прогноз

Эта сводка был подготовлена 35 минут назад, в 06:17 UTC
Прогноз действительный с 19-го 06 UTC до 19-го 13 UTC
Ветер 8 Узел от северный
Видимость 10 км и более
небольшая облачность на высоте 1300 фута
Сплошная облачность на высоте 4000 фута
временами
С 19-го 06 UTC до 19-го 08 UTC
Рассеянная облачность на высоте 1200 фута

TAF: EFIV 190617Z 1906/1913 36008KT 9999 FEW013 OVC040 TEMPO 1906/1908 BKN012

Метеонаблюдения и прогнозы для более 4000 аэропортов (сводки METAR и TAF).

Имеющиеся станции представлены на карте желтыми и красными точками.

Чтобы увидеть название станции, наведите на нее мышь.

Затем щелкните, чтобы увидеть метеонаблюдения и метеопрогнозы.

Управление картой: чтобы увеличить масштаб, щелкните зеленые кнопки с черным крестиком; чтобы уменьшить масштаб, щелкните зеленую кнопку с тире; для просмотра соседних карт щелкайте зеленые стрелки.


METAR-TAF: